VAM | Vabird-VBD

Virtual Vabird! Aerolínea Virtual de habla hispana, desde 2011




 INFORMACIÓN METAR y TAF
METAR FOR LEMD
ADDS - METARS form results

(1233 UTC 12 April 2021)
Data provider http://aviationweather.gov/metar/data/
 
METAR text: LEMD 121200Z 06004KT CAVOK 12/01 Q1024 NOSIG
Conditions at: LEMD (MADRID/BARAJAS , ES) observed 1200 UTC 12 April 2021
Temperature: 12.0°C (54°F)
Dewpoint: 1.0°C (34°F) [RH = 47%]
Pressure (altimeter): 30.24 inches Hg (1024.0 mb)
Winds: from the ENE (60 degrees) at 5 MPH (4 knots; 2.1 m/s)
Visibility: 6 or more miles (10+ km)
Ceiling: ceiling and visibility are OK
Clouds: unknown
Weather: no significant weather observed at this time

Forecast for: LEMD (MADRID/BARAJAS , ES)
Text: TAF LEMD 121100Z 1212/1318 04005KT CAVOK TX20/1315Z TN05/1306Z
Forecast period: 1200 UTC 12 April 2021 to 1800 UTC 13 April 2021
Forecast type: FROM: standard forecast or significant change
Winds: from the NE (40 degrees) at 6 MPH (5 knots; 2.6 m/s)
Visibility: 6 or more miles (10+ km)
Ceiling: unknown
Clouds: missing
Weather: no significant weather forecast for this period

 MAPA DE AEROPUERTO

 INFORMACIÓN DE PISTA